Time;durP1;ratioP1;P1;durP2;ratioP2;P2;SDS_P1;SDS_P2;PMS_P1;PMS_P2;Temp;Humidity;BMP_temperature;BMP_pressure;BME280_temperature;BME280_humidity;BME280_pressure;Samples;Min_cycle;Max_cycle;Signal;HPM_P1;HPM_P2
2021/06/20 00:01:34;;;;;;;11.13;9.57;;;25.10;99.90;;;;;;5050121;28;20541;-72
2021/06/20 00:04:01;;;;;;;10.80;9.53;;;25.20;99.90;;;;;;5050297;28;20435;-73
2021/06/20 00:06:31;;;;;;;12.47;9.30;;;25.20;1.00;;;;;;5050105;28;20457;-73
2021/06/20 00:08:59;;;;;;;10.20;9.27;;;25.20;1.00;;;;;;5050496;28;20476;-73
2021/06/20 00:11:27;;;;;;;13.30;9.30;;;25.30;99.90;;;;;;5051336;28;20434;-73
2021/06/20 00:13:54;;;;;;;9.03;8.13;;;25.30;1.00;;;;;;5054831;28;20449;-73
2021/06/20 00:16:21;;;;;;;9.73;8.73;;;25.40;99.90;;;;;;5053869;28;20529;-73
2021/06/20 00:18:49;;;;;;;9.47;8.60;;;25.50;99.90;;;;;;5050152;28;20803;-73
2021/06/20 00:21:16;;;;;;;10.77;9.63;;;25.40;99.90;;;;;;5054436;28;20549;-73
2021/06/20 00:23:43;;;;;;;11.33;8.63;;;25.40;1.00;;;;;;5054380;28;20640;-72
2021/06/20 00:26:10;;;;;;;10.47;8.60;;;25.20;1.00;;;;;;5054034;28;20458;-73
2021/06/20 00:28:37;;;;;;;10.80;8.70;;;25.20;99.90;;;;;;5053908;28;20481;-73
2021/06/20 00:31:04;;;;;;;9.83;8.30;;;25.40;54.00;;;;;;5054644;28;20442;-72
2021/06/20 00:33:31;;;;;;;10.43;9.17;;;25.50;1.00;;;;;;5053933;28;20451;-73
2021/06/20 00:36:00;;;;;;;8.63;7.83;;;25.60;1.00;;;;;;5054136;28;20451;-73
2021/06/20 00:38:27;;;;;;;10.40;8.80;;;25.80;99.90;;;;;;5053548;28;20534;-73
2021/06/20 00:40:54;;;;;;;10.07;9.13;;;25.90;99.90;;;;;;5054338;28;20533;-74
2021/06/20 00:43:21;;;;;;;10.63;9.17;;;25.70;99.90;;;;;;5053555;28;20898;-72
2021/06/20 00:45:48;;;;;;;11.67;10.33;;;25.40;1.00;;;;;;5054021;28;20536;-73
2021/06/20 00:48:15;;;;;;;9.47;8.67;;;25.30;99.90;;;;;;5054053;28;20974;-73
2021/06/20 00:50:42;;;;;;;9.70;8.70;;;25.20;99.90;;;;;;5053454;28;20450;-73
2021/06/20 00:53:10;;;;;;;13.13;9.17;;;25.20;99.90;;;;;;5054146;28;20480;-74
2021/06/20 00:55:38;;;;;;;10.33;9.30;;;24.90;99.40;;;;;;5053163;28;20452;-72
2021/06/20 00:58:06;;;;;;;10.47;9.47;;;24.80;1.00;;;;;;5053656;28;20442;-73
2021/06/20 01:00:35;;;;;;;10.13;9.13;;;24.70;99.90;;;;;;5052793;28;20442;-72
2021/06/20 01:03:02;;;;;;;12.00;9.17;;;24.70;1.00;;;;;;5053870;28;20442;-73
2021/06/20 01:05:29;;;;;;;10.00;9.00;;;24.80;99.90;;;;;;5052761;28;20465;-73
2021/06/20 01:07:56;;;;;;;12.13;9.60;;;24.90;1.00;;;;;;5053845;28;20529;-73
2021/06/20 01:10:28;;;;;;;9.63;8.63;;;25.00;99.90;;;;;;5053189;28;20562;-72
2021/06/20 01:12:56;;;;;;;12.27;9.10;;;25.00;1.00;;;;;;5053311;28;20530;-73
2021/06/20 01:15:23;;;;;;;9.87;7.90;;;25.10;1.00;;;;;;5052733;28;20533;-72
2021/06/20 01:17:50;;;;;;;11.40;7.80;;;25.40;1.00;;;;;;5053601;28;20481;-73
2021/06/20 01:20:19;;;;;;;17.50;8.33;;;25.60;99.90;;;;;;5053233;28;20874;-73
2021/06/20 01:22:48;;;;;;;12.90;8.00;;;25.70;99.90;;;;;;5051751;28;20539;-73
2021/06/20 01:25:20;;;;;;;11.87;7.33;;;25.90;7.10;;;;;;5053307;28;20461;-73
2021/06/20 01:27:52;;;;;;;19.67;8.97;;;26.00;1.00;;;;;;5052627;28;20466;-73
2021/06/20 01:30:22;;;;;;;22.17;9.00;;;26.20;1.00;;;;;;5053425;28;20478;-73
2021/06/20 01:32:49;;;;;;;18.47;8.20;;;26.20;1.00;;;;;;5052786;28;20458;-73
2021/06/20 01:35:17;;;;;;;22.23;8.30;;;26.30;1.00;;;;;;5053088;28;20477;-73
2021/06/20 01:37:44;;;;;;;20.10;8.47;;;26.30;1.00;;;;;;5052292;28;20569;-73
2021/06/20 01:40:16;;;;;;;21.67;6.93;;;26.30;1.00;;;;;;5053320;28;20564;-73
2021/06/20 01:42:43;;;;;;;16.93;7.60;;;26.30;1.00;;;;;;5052654;28;20446;-73
2021/06/20 01:45:12;;;;;;;20.27;8.20;;;26.30;1.00;;;;;;5052812;28;20533;-72
2021/06/20 01:47:40;;;;;;;20.23;7.60;;;26.30;1.00;;;;;;5052082;28;20461;-73
2021/06/20 01:50:09;;;;;;;21.00;8.17;;;26.30;1.00;;;;;;5052634;28;20572;-73
2021/06/20 01:52:37;;;;;;;25.30;8.73;;;26.30;1.00;;;;;;5052231;28;20482;-73
2021/06/20 01:55:05;;;;;;;26.93;7.73;;;26.30;1.00;;;;;;5052888;28;20521;-73
2021/06/20 01:57:35;;;;;;;19.77;6.90;;;26.30;1.00;;;;;;5052006;28;20446;-73
2021/06/20 02:00:05;;;;;;;17.27;7.97;;;26.20;1.00;;;;;;5052552;28;21021;-73
2021/06/20 02:02:31;;;;;;;24.10;7.13;;;26.20;1.00;;;;;;5051443;28;20533;-72
2021/06/20 02:04:58;;;;;;;23.83;9.03;;;26.20;1.00;;;;;;5039441;28;20435;-73
2021/06/20 02:07:26;;;;;;;21.17;8.10;;;26.10;1.00;;;;;;5053651;28;20442;-70
2021/06/20 02:09:54;;;;;;;17.07;6.97;;;26.10;1.00;;;;;;5052468;28;21055;-73
2021/06/20 02:12:22;;;;;;;19.67;6.67;;;26.00;1.00;;;;;;5052202;28;20504;-73
2021/06/20 02:14:51;;;;;;;25.10;7.50;;;26.00;1.00;;;;;;5050942;28;20530;-73
2021/06/20 02:17:24;;;;;;;23.80;8.33;;;26.00;1.00;;;;;;5052130;28;20457;-73
2021/06/20 02:19:52;;;;;;;15.57;7.40;;;26.00;1.00;;;;;;5052544;28;20430;-74
2021/06/20 02:22:19;;;;;;;15.50;7.03;;;25.90;1.00;;;;;;5052023;28;20544;-73
2021/06/20 02:24:46;;;;;;;12.47;7.33;;;25.90;1.00;;;;;;5051653;28;20700;-73
2021/06/20 02:27:14;;;;;;;25.70;9.87;;;25.90;1.00;;;;;;5052425;28;20537;-73
2021/06/20 02:29:41;;;;;;;15.27;7.67;;;25.80;1.00;;;;;;5051905;28;20930;-73
2021/06/20 02:32:11;;;;;;;17.70;7.97;;;25.70;1.00;;;;;;5051907;28;20525;-73
2021/06/20 02:34:39;;;;;;;16.73;6.77;;;25.80;1.00;;;;;;5050354;28;20529;-73
2021/06/20 02:37:07;;;;;;;25.13;7.93;;;25.80;1.00;;;;;;5052013;28;20493;-73
2021/06/20 02:39:34;;;;;;;19.77;7.40;;;25.70;1.00;;;;;;5051770;28;20858;-73
2021/06/20 02:42:01;;;;;;;29.10;8.40;;;25.70;1.00;;;;;;5051907;28;20449;-73
2021/06/20 02:44:28;;;;;;;22.73;7.77;;;25.70;1.00;;;;;;5051174;28;21020;-71
2021/06/20 02:46:57;;;;;;;21.23;8.00;;;25.60;1.00;;;;;;5051382;28;20850;-73
2021/06/20 02:49:26;;;;;;;15.90;6.97;;;25.60;1.00;;;;;;5051907;28;20884;-73
2021/06/20 02:51:53;;;;;;;15.93;7.03;;;25.60;1.00;;;;;;5051444;28;20457;-73
2021/06/20 02:54:20;;;;;;;19.07;8.33;;;25.50;1.00;;;;;;5051947;28;20800;-73
2021/06/20 02:56:48;;;;;;;17.73;8.60;;;25.60;1.00;;;;;;5050618;28;20445;-73
2021/06/20 02:59:15;;;;;;;19.70;7.03;;;25.60;1.00;;;;;;5051853;28;20862;-73
2021/06/20 03:01:42;;;;;;;14.73;7.30;;;25.60;1.00;;;;;;5050659;28;20947;-73
2021/06/20 03:04:10;;;;;;;22.57;6.93;;;25.50;1.00;;;;;;5051836;28;20529;-73
2021/06/20 03:06:39;;;;;;;19.13;6.87;;;25.50;1.00;;;;;;5050818;28;20441;-73
2021/06/20 03:09:07;;;;;;;18.83;7.50;;;25.60;1.00;;;;;;5051418;28;20478;-73
2021/06/20 03:11:40;;;;;;;21.43;6.80;;;25.50;1.00;;;;;;5050749;28;20442;-72
2021/06/20 03:14:07;;;;;;;18.83;9.80;;;25.40;1.00;;;;;;5050707;28;20492;-72
2021/06/20 03:16:34;;;;;;;22.60;7.73;;;25.40;1.00;;;;;;5050477;28;20467;-72
2021/06/20 03:19:01;;;;;;;18.37;7.87;;;25.40;1.00;;;;;;5051418;28;20526;-72
2021/06/20 03:21:28;;;;;;;18.77;8.30;;;25.40;1.00;;;;;;5051417;28;20462;-73
2021/06/20 03:23:56;;;;;;;19.97;6.97;;;25.30;1.00;;;;;;5051586;28;20449;-72
2021/06/20 03:26:23;;;;;;;18.73;7.80;;;25.30;1.00;;;;;;5050631;28;20442;-73
2021/06/20 03:28:50;;;;;;;17.23;7.20;;;25.20;1.00;;;;;;5050130;28;20697;-73
2021/06/20 03:31:18;;;;;;;18.03;6.60;;;25.50;1.00;;;;;;5050919;28;20998;-73
2021/06/20 03:33:45;;;;;;;22.00;7.20;;;25.50;1.00;;;;;;5050570;28;20442;-72
2021/06/20 03:36:12;;;;;;;31.47;7.20;;;25.40;1.00;;;;;;5050711;28;20944;-73
2021/06/20 03:38:40;;;;;;;17.77;6.90;;;25.40;1.00;;;;;;5050132;28;20450;-72
2021/06/20 03:41:08;;;;;;;19.07;7.53;;;25.40;1.00;;;;;;5050614;28;20458;-71
2021/06/20 03:43:35;;;;;;;28.30;8.40;;;25.40;1.00;;;;;;5050781;28;20453;-71
2021/06/20 03:46:03;;;;;;;16.63;7.13;;;25.30;1.00;;;;;;5050310;28;20534;-70
2021/06/20 03:48:30;;;;;;;18.67;8.10;;;25.20;1.00;;;;;;5050730;28;20541;-71
2021/06/20 03:50:57;;;;;;;18.47;7.03;;;25.20;1.00;;;;;;5050867;28;20481;-71
2021/06/20 03:53:23;;;;;;;13.47;8.17;;;25.10;39.30;;;;;;5050938;28;20477;-71
2021/06/20 03:55:50;;;;;;;13.90;8.17;;;25.10;99.90;;;;;;5050560;28;20810;-70
2021/06/20 03:58:18;;;;;;;22.37;8.60;;;25.10;99.90;;;;;;5051050;28;20446;-71
2021/06/20 04:00:45;;;;;;;26.83;8.63;;;25.00;99.90;;;;;;5050067;28;20544;-71
2021/06/20 04:03:13;;;;;;;19.07;8.30;;;24.90;1.00;;;;;;5031457;28;20436;-71
2021/06/20 04:05:40;;;;;;;17.77;6.87;;;24.90;1.00;;;;;;5038278;28;20878;-71
2021/06/20 04:08:07;;;;;;;19.13;7.67;;;24.90;1.00;;;;;;5050360;28;21032;-71
2021/06/20 04:10:34;;;;;;;17.47;6.90;;;25.00;1.00;;;;;;5049762;28;20509;-70
2021/06/20 04:13:01;;;;;;;12.13;7.50;;;25.00;1.00;;;;;;5050939;28;20533;-71
2021/06/20 04:15:30;;;;;;;17.50;8.37;;;25.10;1.00;;;;;;5050737;28;20454;-71
2021/06/20 04:17:57;;;;;;;20.63;8.43;;;25.20;1.00;;;;;;5050120;28;20446;-71
2021/06/20 04:20:24;;;;;;;14.73;7.20;;;25.20;1.00;;;;;;5052403;28;20461;-71
2021/06/20 04:22:51;;;;;;;22.37;6.87;;;25.40;99.90;;;;;;5050549;28;20534;-71
2021/06/20 04:25:17;;;;;;;15.63;7.83;;;25.20;1.00;;;;;;5050537;28;20453;-72
2021/06/20 04:27:45;;;;;;;17.50;6.83;;;25.20;99.90;;;;;;5049853;28;20451;-71
2021/06/20 04:30:14;;;;;;;22.47;7.43;;;25.10;1.00;;;;;;5050181;28;20477;-71
2021/06/20 04:32:44;;;;;;;18.43;7.70;;;24.90;90.90;;;;;;5049155;28;21030;-71
2021/06/20 04:35:13;;;;;;;16.70;7.80;;;24.90;99.90;;;;;;5050223;28;20518;-71
2021/06/20 04:37:40;;;;;;;18.87;7.40;;;24.90;99.90;;;;;;5049133;28;20447;-71
2021/06/20 04:40:11;;;;;;;13.17;7.60;;;24.90;99.90;;;;;;5050495;28;20453;-71
2021/06/20 04:42:39;;;;;;;10.70;6.60;;;24.90;99.90;;;;;;5049774;28;20451;-72
2021/06/20 04:45:08;;;;;;;9.73;6.77;;;25.20;99.90;;;;;;5049853;28;20986;-72
2021/06/20 04:47:35;;;;;;;24.20;7.23;;;25.20;99.90;;;;;;5049177;28;20810;-68
2021/06/20 04:50:04;;;;;;;21.33;7.33;;;25.10;1.00;;;;;;5050347;28;20944;-72
2021/06/20 04:52:31;;;;;;;16.53;7.40;;;25.10;99.90;;;;;;5049995;28;20835;-72
2021/06/20 04:54:58;;;;;;;20.10;6.30;;;25.40;1.00;;;;;;5049804;28;20838;-72
2021/06/20 04:57:27;;;;;;;15.50;7.17;;;25.30;1.00;;;;;;5049987;28;20812;-71
2021/06/20 04:59:57;;;;;;;18.20;7.17;;;25.00;99.90;;;;;;5052367;28;20452;-71
2021/06/20 05:02:24;;;;;;;16.07;8.40;;;24.80;1.00;;;;;;5052482;28;20528;-72
2021/06/20 05:04:51;;;;;;;14.83;6.17;;;24.80;99.90;;;;;;5053047;28;20442;-72
2021/06/20 05:07:20;;;;;;;13.40;6.07;;;24.80;99.90;;;;;;5053687;28;20542;-71
2021/06/20 05:09:48;;;;;;;14.53;6.53;;;24.90;99.90;;;;;;5052987;28;20482;-71
2021/06/20 05:12:15;;;;;;;14.83;8.23;;;24.90;99.90;;;;;;5053066;28;20470;-72
2021/06/20 05:14:43;;;;;;;16.03;7.63;;;24.90;1.00;;;;;;5052754;28;20458;-71
2021/06/20 05:17:11;;;;;;;21.10;5.80;;;25.00;99.90;;;;;;5052899;28;20966;-71
2021/06/20 05:19:38;;;;;;;13.33;7.30;;;25.00;99.90;;;;;;5052636;28;20461;-70
2021/06/20 05:22:05;;;;;;;15.97;5.93;;;25.00;59.10;;;;;;5053921;28;20454;-71
2021/06/20 05:24:33;;;;;;;14.90;6.13;;;25.00;1.00;;;;;;5073369;28;20507;-71
2021/06/20 05:27:00;;;;;;;12.07;6.60;;;24.90;1.00;;;;;;5068225;28;21016;-72
2021/06/20 05:29:28;;;;;;;13.70;6.50;;;24.90;1.00;;;;;;5060864;28;20457;-71
2021/06/20 05:31:54;;;;;;;13.17;6.40;;;24.90;99.90;;;;;;5052450;28;20442;-71
2021/06/20 05:34:21;;;;;;;13.80;5.20;;;25.00;1.00;;;;;;5053141;28;20529;-72
2021/06/20 05:36:48;;;;;;;9.80;5.43;;;25.10;1.00;;;;;;5052037;28;20549;-72
2021/06/20 05:39:15;;;;;;;12.60;5.03;;;25.10;1.00;;;;;;5053211;28;20482;-72
2021/06/20 05:41:43;;;;;;;14.10;4.97;;;24.90;1.00;;;;;;5052384;28;20442;-72
2021/06/20 05:44:10;;;;;;;16.47;4.87;;;25.00;1.00;;;;;;5052842;28;20454;-72
2021/06/20 05:46:38;;;;;;;14.93;5.70;;;24.90;1.00;;;;;;5052464;28;20930;-72
2021/06/20 05:49:05;;;;;;;10.73;4.27;;;25.00;1.00;;;;;;5052864;28;20524;-72
2021/06/20 05:51:32;;;;;;;7.93;3.70;;;25.10;93.40;;;;;;5052650;28;20595;-72
2021/06/20 05:53:58;;;;;;;10.93;5.17;;;25.10;99.90;;;;;;5051981;28;21164;-72
2021/06/20 05:56:25;;;;;;;13.90;6.37;;;25.10;99.90;;;;;;5052570;28;20450;-71
2021/06/20 05:58:53;;;;;;;8.30;4.03;;;25.00;1.00;;;;;;5051608;28;20954;-73
2021/06/20 06:01:20;;;;;;;11.53;5.80;;;25.10;1.00;;;;;;5052637;28;20539;-71
2021/06/20 06:03:47;;;;;;;11.23;5.33;;;25.10;99.90;;;;;;5051970;28;20735;-71
2021/06/20 06:06:14;;;;;;;6.70;3.50;;;25.10;99.90;;;;;;5052628;28;20538;-71
2021/06/20 06:08:41;;;;;;;7.40;4.50;;;25.20;99.90;;;;;;5051736;28;20561;-71
2021/06/20 06:11:08;;;;;;;6.60;4.50;;;25.10;99.90;;;;;;5051542;28;20560;-72
2021/06/20 06:13:34;;;;;;;9.93;5.20;;;25.20;99.90;;;;;;5048851;28;20533;-72
2021/06/20 06:16:03;;;;;;;9.33;3.97;;;25.20;99.90;;;;;;5051979;28;20798;-72
2021/06/20 06:18:30;;;;;;;6.73;3.67;;;25.10;99.90;;;;;;5052179;28;20471;-71
2021/06/20 06:20:56;;;;;;;7.60;3.47;;;25.10;99.90;;;;;;5051756;28;20534;-72
2021/06/20 06:23:23;;;;;;;11.73;3.93;;;25.10;99.90;;;;;;5052174;28;20447;-72
2021/06/20 06:25:50;;;;;;;16.77;4.20;;;25.10;99.90;;;;;;5050963;28;20818;-72
2021/06/20 06:28:17;;;;;;;8.67;3.90;;;25.30;99.90;;;;;;5051853;28;20981;-72
2021/06/20 06:30:44;;;;;;;8.77;4.20;;;25.20;56.00;;;;;;5051457;28;20478;-71
2021/06/20 06:33:12;;;;;;;6.30;3.20;;;25.20;20.50;;;;;;5052310;28;21135;-72
2021/06/20 06:35:39;;;;;;;10.73;3.80;;;25.40;1.00;;;;;;5051531;28;20526;-72
2021/06/20 06:38:06;;;;;;;6.77;3.30;;;25.60;1.00;;;;;;5051757;28;20438;-72
2021/06/20 06:40:35;;;;;;;7.70;3.70;;;25.60;1.00;;;;;;5051519;28;20550;-72
2021/06/20 06:43:02;;;;;;;9.33;3.37;;;25.70;1.00;;;;;;5050898;28;20860;-72
2021/06/20 06:45:29;;;;;;;6.83;2.83;;;25.90;1.00;;;;;;5051618;28;20533;-72
2021/06/20 06:47:56;;;;;;;6.57;3.07;;;25.90;1.00;;;;;;5050446;28;20564;-71
2021/06/20 06:50:24;;;;;;;8.57;3.80;;;25.80;1.00;;;;;;5050948;28;20480;-71
2021/06/20 06:52:51;;;;;;;6.77;4.00;;;25.70;1.00;;;;;;5050922;28;20474;-72
2021/06/20 06:55:17;;;;;;;8.80;4.33;;;25.80;1.00;;;;;;5051441;28;20454;-72
2021/06/20 06:57:44;;;;;;;9.00;3.20;;;25.80;1.00;;;;;;5051176;28;20446;-72
2021/06/20 07:00:13;;;;;;;20.20;3.80;;;25.90;1.00;;;;;;5051303;28;20546;-72
2021/06/20 07:02:40;;;;;;;13.23;5.50;;;25.90;1.00;;;;;;5052008;28;21017;-72
2021/06/20 07:05:08;;;;;;;7.13;3.87;;;26.00;1.00;;;;;;5053581;28;20449;-72
2021/06/20 07:07:36;;;;;;;11.73;4.37;;;26.00;1.00;;;;;;5060909;28;20529;-73
2021/06/20 07:10:05;;;;;;;10.60;4.50;;;25.90;1.00;;;;;;5054890;28;20477;-73
2021/06/20 07:12:33;;;;;;;10.30;4.70;;;26.00;1.00;;;;;;5067576;28;21080;-73
2021/06/20 07:15:03;;;;;;;17.27;5.10;;;26.10;1.00;;;;;;5055344;28;20516;-73
2021/06/20 07:17:30;;;;;;;19.00;5.90;;;26.20;1.00;;;;;;5061730;28;20533;-72
2021/06/20 07:19:57;;;;;;;18.47;6.73;;;26.10;1.00;;;;;;5063160;28;20806;-71
2021/06/20 07:22:24;;;;;;;15.60;6.53;;;26.10;61.90;;;;;;5054186;28;20967;-70
2021/06/20 07:24:52;;;;;;;13.43;6.83;;;26.10;99.90;;;;;;5039165;28;20446;-71
2021/06/20 07:27:19;;;;;;;13.83;6.07;;;26.30;75.10;;;;;;5038538;28;20510;-70
2021/06/20 07:29:47;;;;;;;10.67;5.37;;;26.20;55.20;;;;;;5049159;28;20449;-70
2021/06/20 07:32:15;;;;;;;13.80;5.37;;;26.30;1.00;;;;;;5055127;28;20560;-71
2021/06/20 07:34:42;;;;;;;10.90;6.90;;;26.20;13.50;;;;;;5055814;28;20521;-73
2021/06/20 07:37:09;;;;;;;8.13;5.53;;;26.30;17.30;;;;;;5069149;28;20528;-72
2021/06/20 07:39:36;;;;;;;16.50;5.43;;;26.30;6.20;;;;;;5051925;28;20442;-71
2021/06/20 07:42:05;;;;;;;13.23;5.90;;;26.50;1.00;;;;;;5052479;28;20545;-70
2021/06/20 07:44:31;;;;;;;14.00;5.03;;;26.30;1.00;;;;;;5065811;28;20969;-70
2021/06/20 07:46:58;;;;;;;16.33;9.00;;;26.20;1.00;;;;;;5059927;28;20516;-70
2021/06/20 07:49:25;;;;;;;12.47;5.33;;;26.40;1.00;;;;;;5058524;28;20525;-72
2021/06/20 07:51:52;;;;;;;12.63;6.40;;;26.20;1.00;;;;;;5066793;28;20575;-73
2021/06/20 07:54:19;;;;;;;18.10;5.80;;;26.20;1.00;;;;;;5054769;28;20513;-71
2021/06/20 07:56:46;;;;;;;10.27;4.93;;;26.10;11.70;;;;;;5064018;28;20522;-70
2021/06/20 07:59:15;;;;;;;11.90;6.13;;;26.10;32.60;;;;;;5065600;28;20847;-74
2021/06/20 08:01:42;;;;;;;17.77;6.40;;;26.10;53.90;;;;;;5056814;28;21391;-72
2021/06/20 08:04:09;;;;;;;6.80;4.80;;;26.00;47.90;;;;;;5055488;28;20454;-72
2021/06/20 08:06:36;;;;;;;12.23;6.10;;;;;;;;;;5065298;28;20438;-72
2021/06/20 08:09:03;;;;;;;16.13;6.30;;;;;;;;;;5060348;28;20798;-72
2021/06/20 08:11:33;;;;;;;16.47;6.87;;;26.10;54.40;;;;;;5057346;28;21051;-75
2021/06/20 08:14:02;;;;;;;8.60;6.20;;;26.10;99.90;;;;;;5066537;28;20524;-70
2021/06/20 08:16:31;;;;;;;8.43;5.93;;;26.20;28.00;;;;;;5056119;28;20456;-70
2021/06/20 08:18:58;;;;;;;12.83;6.03;;;26.10;41.40;;;;;;5060941;28;20541;-72
2021/06/20 08:21:25;;;;;;;10.17;5.83;;;26.00;53.80;;;;;;5063797;28;20515;-73
2021/06/20 08:23:52;;;;;;;9.63;5.60;;;26.10;37.80;;;;;;5053887;28;20445;-73
2021/06/20 08:26:19;;;;;;;7.17;5.10;;;26.20;33.30;;;;;;5038310;28;20864;-71
2021/06/20 08:28:46;;;;;;;11.40;4.83;;;26.30;1.00;;;;;;5063492;28;20530;-73
2021/06/20 08:31:13;;;;;;;10.20;5.53;;;26.30;1.00;;;;;;5050181;28;20476;-73
2021/06/20 08:33:41;;;;;;;10.00;5.40;;;26.10;2.80;;;;;;5061097;28;20862;-73
2021/06/20 08:36:08;;;;;;;10.20;6.23;;;26.10;10.30;;;;;;5070767;28;20729;-73
2021/06/20 08:38:35;;;;;;;9.57;5.27;;;26.10;11.20;;;;;;5060648;28;20437;-74
2021/06/20 08:41:03;;;;;;;10.50;5.50;;;26.10;12.00;;;;;;5063877;28;20502;-74
2021/06/20 08:43:30;;;;;;;9.40;5.37;;;26.30;1.00;;;;;;5068205;28;20767;-73
2021/06/20 08:45:57;;;;;;;12.17;5.77;;;26.30;1.00;;;;;;5056899;28;20505;-74
2021/06/20 08:48:24;;;;;;;8.60;6.37;;;26.40;1.00;;;;;;5054938;28;20442;-73
2021/06/20 08:50:53;;;;;;;12.33;5.30;;;26.50;1.00;;;;;;5061485;28;20706;-74
2021/06/20 08:53:21;;;;;;;7.80;5.77;;;26.50;1.00;;;;;;5062326;28;20472;-73
2021/06/20 08:55:49;;;;;;;11.23;5.77;;;26.70;1.00;;;;;;5069873;28;21009;-73
2021/06/20 08:58:26;;;;;;;6.50;4.90;;;26.80;1.00;;;;;;5056594;28;20479;-73
2021/06/20 09:00:52;;;;;;;9.40;5.40;;;26.70;1.00;;;;;;5065590;28;20586;-76
2021/06/20 09:03:19;;;;;;;7.87;5.47;;;26.90;1.00;;;;;;5066384;28;20472;-77
2021/06/20 09:05:59;;;;;;;10.27;5.00;;;26.80;1.00;;;;;;5058676;28;20521;-75
2021/06/20 09:08:27;;;;;;;12.57;5.00;;;26.70;1.00;;;;;;5040803;28;20441;-75
2021/06/20 09:10:55;;;;;;;10.03;5.80;;;26.70;1.00;;;;;;5062053;28;20642;-75
2021/06/20 09:13:22;;;;;;;14.30;5.40;;;26.80;1.00;;;;;;5062670;28;20442;-77
2021/06/20 09:16:00;;;;;;;11.27;5.70;;;26.60;1.00;;;;;;5070960;28;20498;-78
2021/06/20 09:18:27;;;;;;;13.57;5.40;;;26.70;1.00;;;;;;5044167;28;20433;-78
2021/06/20 09:20:54;;;;;;;13.27;4.80;;;26.40;1.00;;;;;;5065433;28;20524;-77
2021/06/20 09:23:22;;;;;;;8.17;5.07;;;26.60;1.00;;;;;;5065881;28;20813;-75
2021/06/20 09:25:55;;;;;;;8.17;5.07;;;26.80;1.00;;;;;;5043862;28;20956;-76
2021/06/20 09:28:22;;;;;;;11.53;5.70;;;26.80;1.00;;;;;;5032069;28;20982;-75
2021/06/20 09:30:52;;;;;;;9.67;5.63;;;26.70;1.00;;;;;;5051061;28;20577;-75
2021/06/20 09:33:19;;;;;;;12.30;5.40;;;26.70;1.00;;;;;;5052118;28;20881;-75
2021/06/20 09:35:51;;;;;;;8.93;5.07;;;26.80;1.00;;;;;;5050760;28;20533;-76
2021/06/20 09:38:20;;;;;;;13.17;4.70;;;27.00;1.00;;;;;;5051443;28;20449;-75
2021/06/20 09:40:52;;;;;;;11.13;5.50;;;26.90;1.00;;;;;;5051614;28;20529;-75
2021/06/20 09:43:21;;;;;;;9.00;5.13;;;27.00;1.00;;;;;;5049419;28;20532;-75
2021/06/20 09:45:50;;;;;;;14.27;5.70;;;27.20;1.00;;;;;;5050275;28;20454;-75
2021/06/20 09:48:24;;;;;;;4.93;4.20;;;27.30;1.00;;;;;;5050146;28;20456;-76
2021/06/20 09:50:52;;;;;;;7.03;4.60;;;27.30;1.00;;;;;;5050744;28;20511;-75
2021/06/20 09:53:31;;;;;;;14.37;5.47;;;27.30;1.00;;;;;;5050965;28;20477;-76
2021/06/20 09:56:21;;;;;;;12.50;4.20;;;27.60;1.00;;;;;;5050536;28;20505;-76
2021/06/20 09:58:56;;;;;;;7.97;4.10;;;27.60;1.00;;;;;;5051121;28;20972;-78
2021/06/20 10:01:24;;;;;;;7.53;3.43;;;27.40;1.00;;;;;;5050682;28;20502;-76
2021/06/20 10:03:51;;;;;;;5.33;3.30;;;27.70;99.90;;;;;;5050696;28;20450;-75
2021/06/20 10:06:18;;;;;;;6.27;3.60;;;27.70;99.90;;;;;;5051220;28;20525;-75
2021/06/20 10:08:46;;;;;;;9.07;3.90;;;27.30;99.90;;;;;;5032425;28;20884;-74
2021/06/20 10:11:15;;;;;;;12.07;3.23;;;27.30;99.90;;;;;;5050424;28;20477;-75
2021/06/20 10:13:42;;;;;;;5.63;3.47;;;27.20;99.90;;;;;;5050671;28;20438;-76
2021/06/20 10:16:17;;;;;;;6.33;3.07;;;27.30;99.90;;;;;;5049545;28;20950;-74
2021/06/20 10:18:49;;;;;;;6.07;3.30;;;27.50;99.90;;;;;;5050447;28;20496;-74
2021/06/20 10:21:27;;;;;;;8.33;2.83;;;27.40;99.90;;;;;;5050320;28;20494;-75
2021/06/20 10:24:07;;;;;;;7.27;3.40;;;27.20;99.90;;;;;;5046700;28;20919;-74
2021/06/20 10:26:35;;;;;;;7.27;3.90;;;27.20;99.90;;;;;;5049870;28;20438;-74
2021/06/20 10:29:04;;;;;;;8.97;3.00;;;27.30;99.90;;;;;;5049630;28;20459;-75
2021/06/20 10:31:35;;;;;;;4.10;2.70;;;27.40;99.90;;;;;;5050164;28;20501;-74
2021/06/20 10:34:19;;;;;;;6.23;3.57;;;27.50;99.90;;;;;;5049675;28;20442;-75
2021/06/20 10:36:47;;;;;;;5.73;3.43;;;27.60;99.90;;;;;;5049849;28;20508;-75
2021/06/20 10:39:15;;;;;;;3.23;2.87;;;27.90;99.90;;;;;;5048919;28;20473;-74
2021/06/20 10:41:43;;;;;;;5.00;3.30;;;27.90;99.90;;;;;;5050934;28;20493;-75
2021/06/20 10:44:11;;;;;;;16.70;4.30;;;28.00;99.90;;;;;;5047684;28;20525;-77
2021/06/20 10:46:39;;;;;;;12.33;3.43;;;28.00;99.90;;;;;;5050110;28;20482;-75
2021/06/20 10:49:18;;;;;;;8.93;3.40;;;28.00;99.90;;;;;;5048874;28;20445;-76
2021/06/20 10:51:46;;;;;;;7.00;2.90;;;27.90;99.90;;;;;;5049631;28;20477;-76
2021/06/20 10:54:26;;;;;;;6.90;3.40;;;27.90;99.90;;;;;;5049447;28;20856;-74
2021/06/20 10:56:59;;;;;;;3.60;2.50;;;28.10;99.90;;;;;;5049250;28;20466;-73
2021/06/20 10:59:26;;;;;;;4.37;2.57;;;28.30;99.90;;;;;;5048890;28;20524;-73
2021/06/20 11:01:53;;;;;;;5.40;2.50;;;28.10;99.90;;;;;;5049297;28;20449;-77
2021/06/20 11:04:20;;;;;;;4.30;2.47;;;28.40;99.90;;;;;;5048832;28;20554;-75
2021/06/20 11:06:55;;;;;;;6.43;2.80;;;28.80;99.90;;;;;;5049708;28;20450;-74
2021/06/20 11:09:23;;;;;;;5.00;2.80;;;28.90;99.90;;;;;;5049450;28;20504;-74
2021/06/20 11:11:52;;;;;;;6.37;2.83;;;29.10;99.90;;;;;;5049090;28;20226;-74
2021/06/20 11:14:21;;;;;;;6.63;2.70;;;28.90;99.90;;;;;;5049009;28;20857;-74
2021/06/20 11:16:49;;;;;;;5.93;2.90;;;28.60;99.90;;;;;;5050015;28;20855;-74
2021/06/20 11:19:18;;;;;;;9.77;4.00;;;28.40;99.90;;;;;;5049243;28;20469;-74
2021/06/20 11:21:49;;;;;;;5.17;2.40;;;28.70;99.90;;;;;;5049173;28;20491;-74
2021/06/20 11:24:21;;;;;;;4.70;2.70;;;29.30;99.90;;;;;;5048477;28;20433;-74
2021/06/20 11:27:00;;;;;;;6.70;3.80;;;29.40;99.90;;;;;;5049638;28;20538;-74
2021/06/20 11:29:38;;;;;;;6.40;2.97;;;29.30;99.90;;;;;;5049197;28;20533;-75
2021/06/20 11:32:06;;;;;;;6.23;3.77;;;29.10;99.90;;;;;;5048038;28;20525;-75
2021/06/20 11:34:34;;;;;;;7.30;3.30;;;29.20;99.90;;;;;;5052502;28;20655;-75
2021/06/20 11:37:00;;;;;;;7.67;3.43;;;29.50;99.90;;;;;;5048670;28;20510;-77
2021/06/20 11:39:35;;;;;;;9.70;2.90;;;29.20;99.90;;;;;;5049044;28;21017;-75
2021/06/20 11:42:02;;;;;;;8.33;3.57;;;29.20;99.90;;;;;;5046011;28;20437;-75
2021/06/20 11:44:31;;;;;;;7.00;3.60;;;29.50;99.90;;;;;;5048810;28;20545;-74
2021/06/20 11:46:58;;;;;;;9.63;3.10;;;30.20;99.90;;;;;;5029125;28;20240;-75
2021/06/20 11:49:25;;;;;;;6.77;3.20;;;29.90;99.90;;;;;;5035780;28;20862;-74
2021/06/20 11:51:56;;;;;;;5.93;3.13;;;30.10;99.90;;;;;;5051161;28;20492;-75
2021/06/20 11:54:27;;;;;;;10.63;3.50;;;30.20;99.90;;;;;;5049807;28;20195;-74
2021/06/20 11:56:56;;;;;;;12.90;4.20;;;30.00;99.90;;;;;;5053359;28;20258;-75
2021/06/20 11:59:34;;;;;;;14.27;3.90;;;30.30;99.90;;;;;;5054040;28;20480;-76
2021/06/20 12:02:02;;;;;;;17.13;3.80;;;30.40;99.90;;;;;;5031933;28;20442;-76
2021/06/20 12:04:31;;;;;;;10.30;3.20;;;30.20;99.90;;;;;;5048960;28;20554;-75
2021/06/20 12:10:08;;;;;;;9.00;3.47;;;30.30;99.90;;;;;;5168633;27;20591;-74
2021/06/20 12:12:38;;;;;;;8.77;2.93;;;30.50;99.90;;;;;;5147670;27;20616;-74
2021/06/20 12:15:06;;;;;;;13.07;3.03;;;30.40;99.90;;;;;;5147135;27;20656;-75
2021/06/20 12:17:33;;;;;;;11.93;4.20;;;30.30;99.90;;;;;;5147665;27;20291;-74
2021/06/20 12:20:00;;;;;;;7.50;4.00;;;30.30;99.90;;;;;;5147341;27;20236;-76
2021/06/20 12:22:27;;;;;;;7.70;3.83;;;30.30;99.90;;;;;;5147782;27;20730;-75
2021/06/20 12:25:00;;;;;;;7.07;3.37;;;30.30;99.90;;;;;;5147182;27;20196;-75
2021/06/20 12:27:36;;;;;;;8.27;3.30;;;30.20;99.90;;;;;;5147313;27;20192;-75
2021/06/20 12:30:17;;;;;;;10.67;5.03;;;30.30;99.90;;;;;;5146743;27;20188;-76
2021/06/20 12:32:45;;;;;;;11.30;3.33;;;30.60;99.90;;;;;;5147316;27;20180;-75
2021/06/20 12:35:20;;;;;;;16.47;3.80;;;31.00;99.90;;;;;;5142686;27;20231;-76
2021/06/20 12:37:47;;;;;;;12.23;4.93;;;30.40;99.90;;;;;;5130986;27;20190;-75
2021/06/20 12:40:17;;;;;;;12.23;3.97;;;30.40;99.90;;;;;;5143724;27;20260;-75
2021/06/20 12:42:48;;;;;;;15.47;4.10;;;30.70;99.60;;;;;;5142855;27;20196;-75
2021/06/20 12:45:24;;;;;;;14.90;4.50;;;30.70;96.40;;;;;;5143728;27;20194;-75
2021/06/20 12:47:51;;;;;;;15.23;4.30;;;30.50;94.60;;;;;;5134097;27;20227;-76
2021/06/20 12:50:29;;;;;;;12.57;3.67;;;30.50;91.70;;;;;;5142927;27;20261;-79
2021/06/20 12:52:56;;;;;;;14.73;4.23;;;30.40;90.50;;;;;;5144861;27;20279;-78
2021/06/20 12:55:26;;;;;;;16.50;4.20;;;30.50;92.10;;;;;;5143904;27;20239;-77